createdAt,value
2023-05-24T05:31:25.818Z,4.75
2023-05-24T05:34:27.492Z,6.10
2023-05-24T05:37:29.872Z,5.05
2023-05-24T05:40:31.671Z,4.72
2023-05-24T05:43:33.574Z,5.03
2023-05-24T05:46:35.384Z,5.40
2023-05-24T05:49:37.216Z,4.95
2023-05-24T05:52:39.095Z,5.38
2023-05-24T05:55:40.919Z,5.07
2023-05-24T05:58:42.971Z,4.60
2023-05-24T06:01:49.190Z,6.20
2023-05-24T06:04:51.825Z,5.10
2023-05-24T06:07:53.900Z,6.15
2023-05-24T06:10:56.063Z,5.40
2023-05-24T06:49:40.839Z,4.63
2023-05-24T06:52:44.542Z,5.40
2023-05-24T06:55:48.373Z,4.70
2023-05-24T06:58:51.492Z,4.82
2023-05-24T07:01:59.549Z,6.65
2023-05-24T07:05:03.288Z,5.55
2023-05-24T07:08:08.408Z,4.68
2023-05-24T07:11:10.943Z,4.70
2023-05-24T07:14:13.973Z,5.38
2023-05-24T07:17:16.242Z,5.30
2023-05-24T07:20:18.319Z,5.10
2023-05-24T07:23:20.320Z,5.72
2023-05-24T07:26:22.518Z,5.60
2023-05-24T07:29:25.937Z,5.53
2023-05-24T07:32:27.976Z,4.70
2023-05-24T07:35:31.137Z,5.40
2023-05-24T07:38:34.357Z,5.57
2023-05-24T07:41:37.184Z,5.57
2023-05-24T07:44:39.211Z,5.57
2023-05-24T07:47:41.040Z,5.93
2023-05-24T07:50:43.311Z,5.28
2023-05-24T07:53:45.733Z,5.28
2023-05-24T07:56:47.851Z,7.03
2023-05-24T07:59:50.544Z,5.65
2023-05-24T08:02:53.371Z,5.63
2023-05-24T08:05:55.236Z,5.25
2023-05-24T08:08:57.100Z,6.45
2023-05-24T08:11:59.328Z,5.50
2023-05-24T08:15:02.340Z,6.57
2023-05-24T08:18:05.773Z,5.43
2023-05-24T08:21:09.059Z,5.80
2023-05-24T08:24:12.114Z,4.80
2023-05-24T08:27:14.882Z,5.38
2023-05-24T08:30:17.792Z,5.78
2023-05-24T08:33:19.694Z,4.75
2023-05-24T08:36:22.942Z,4.97
2023-05-24T08:39:25.088Z,5.28
2023-05-24T08:42:29.765Z,4.93
2023-05-24T08:45:34.960Z,5.68
2023-05-24T08:51:48.067Z,5.13
2023-05-24T08:54:51.006Z,5.70
2023-05-24T08:57:55.289Z,5.22
2023-05-24T09:00:59.130Z,5.60
2023-05-24T09:04:02.428Z,4.95
2023-05-24T09:07:05.794Z,4.75
2023-05-24T09:10:09.652Z,5.35
2023-05-24T09:13:14.385Z,5.32
2023-05-24T09:16:16.904Z,5.15
2023-05-24T09:19:20.276Z,4.82
2023-05-24T09:22:28.220Z,4.80
2023-05-24T09:25:30.557Z,4.60
2023-05-24T09:28:32.742Z,5.43
2023-05-24T09:31:36.134Z,6.15
2023-05-24T09:34:42.535Z,4.93
2023-05-24T09:37:47.174Z,5.28
2023-05-24T09:41:02.642Z,5.40
2023-05-24T09:44:06.398Z,4.88
2023-05-24T09:47:12.155Z,4.25
2023-05-24T09:50:20.145Z,4.88
2023-05-24T09:53:24.453Z,4.93
2023-05-24T09:56:51.747Z,4.63
2023-05-24T09:59:54.295Z,5.15
2023-05-24T10:03:08.166Z,4.18
2023-05-24T10:06:13.899Z,4.82
2023-05-24T10:09:16.320Z,4.53
2023-05-24T10:12:19.015Z,4.97
2023-05-24T10:15:20.956Z,5.65
2023-05-24T10:18:23.713Z,4.45
2023-05-24T10:21:29.561Z,4.97
2023-05-24T10:24:41.076Z,4.60
2023-05-24T10:27:45.251Z,4.25
2023-05-24T10:30:53.201Z,5.17
2023-05-24T10:34:06.576Z,4.85
2023-05-24T10:37:09.684Z,5.57
2023-05-24T10:40:25.309Z,5.05
2023-05-24T10:43:27.297Z,5.05
2023-05-24T10:46:29.605Z,3.40
2023-05-24T10:49:31.902Z,4.78
2023-05-24T10:52:35.638Z,4.85
2023-05-24T10:55:58.566Z,4.10
2023-05-24T10:59:06.127Z,4.43
2023-05-24T11:02:16.573Z,6.38
2023-05-24T11:05:18.662Z,4.43
2023-05-24T11:08:31.927Z,4.55
2023-05-24T11:11:34.137Z,4.28
2023-05-24T11:14:39.978Z,3.97
2023-05-24T11:18:09.696Z,4.18
2023-05-24T11:21:12.016Z,4.35
2023-05-24T11:24:14.147Z,4.38
2023-05-24T11:27:16.059Z,4.15
2023-05-24T11:30:19.878Z,4.05
2023-05-24T11:33:23.646Z,4.53
2023-05-24T11:36:26.396Z,4.38
2023-05-24T11:39:33.029Z,5.22
2023-05-24T11:42:34.978Z,5.60
2023-05-24T11:45:37.123Z,4.03
2023-05-24T11:48:42.063Z,4.20
2023-05-24T11:54:46.150Z,4.28
2023-05-24T11:57:54.524Z,3.90
2023-05-24T12:00:56.369Z,3.75
2023-05-24T12:03:58.226Z,3.80
2023-05-24T12:07:01.109Z,4.03
2023-05-24T12:10:04.458Z,4.25
2023-05-24T12:13:23.850Z,4.65
2023-05-24T12:16:26.747Z,3.53
2023-05-24T12:19:35.298Z,4.47
2023-05-24T12:22:38.191Z,3.88
2023-05-24T12:25:39.898Z,4.68
2023-05-24T12:28:42.048Z,4.32
2023-05-24T12:31:47.509Z,3.30
2023-05-24T12:34:50.398Z,3.13
2023-05-24T12:37:59.996Z,3.75
2023-05-24T12:44:07.730Z,3.45
2023-05-24T12:47:09.952Z,3.47
2023-05-24T12:50:11.852Z,3.85
2023-05-24T12:53:13.770Z,2.80
2023-05-24T12:56:15.608Z,3.22
2023-05-24T12:59:17.735Z,3.40
2023-05-24T13:02:20.092Z,3.08
2023-05-24T13:05:23.795Z,3.03
2023-05-24T13:08:28.736Z,3.65
2023-05-24T13:11:32.017Z,3.40
2023-05-24T13:14:34.376Z,3.60
2023-05-24T13:17:36.500Z,3.65
2023-05-24T13:20:38.375Z,3.10
2023-05-24T13:23:40.427Z,2.92
2023-05-24T13:26:42.384Z,3.08
2023-05-24T13:29:59.209Z,3.78
2023-05-24T13:33:02.352Z,3.22
2023-05-24T13:36:04.612Z,2.63
2023-05-24T13:42:14.792Z,3.58
2023-05-24T13:45:16.913Z,3.33
2023-05-24T13:48:18.968Z,3.38
2023-05-24T13:51:22.595Z,3.92
2023-05-24T13:54:24.647Z,3.20
2023-05-24T13:57:33.596Z,3.60
2023-05-24T14:00:42.706Z,4.93
2023-05-24T14:03:44.670Z,3.13
2023-05-24T14:06:46.523Z,3.53
2023-05-24T14:09:48.386Z,3.38
2023-05-24T14:13:03.377Z,3.40
2023-05-24T14:16:13.171Z,3.00
2023-05-24T14:19:17.035Z,2.60
2023-05-24T14:22:18.812Z,3.30
2023-05-24T14:25:20.874Z,3.20
2023-05-24T14:28:22.676Z,3.22
2023-05-24T14:31:24.776Z,3.22
2023-05-24T14:34:26.542Z,3.28
2023-05-24T14:37:28.472Z,3.40
2023-05-24T14:40:30.498Z,3.03
2023-05-24T14:43:32.414Z,3.47
2023-05-24T14:46:34.426Z,3.22
2023-05-24T14:49:36.478Z,3.83
2023-05-24T14:52:38.229Z,3.35
2023-05-24T14:55:42.873Z,3.75
2023-05-24T14:58:45.876Z,2.95
2023-05-24T15:01:47.733Z,3.03
2023-05-24T15:04:49.630Z,3.20
2023-05-24T15:07:51.665Z,2.75
2023-05-24T15:10:53.469Z,3.17
2023-05-24T15:13:58.656Z,3.28
2023-05-24T15:20:02.783Z,3.35
2023-05-24T15:23:04.898Z,2.95
2023-05-24T15:26:06.809Z,3.05
2023-05-24T15:29:09.282Z,3.40
2023-05-24T15:32:12.254Z,3.45
2023-05-24T15:35:14.452Z,2.97
2023-05-24T15:38:17.661Z,3.22
2023-05-24T15:41:19.652Z,3.00
2023-05-24T15:44:21.649Z,3.00
2023-05-24T15:47:27.918Z,3.55
2023-05-24T15:50:49.309Z,2.45
2023-05-24T15:53:51.567Z,3.42
2023-05-24T15:56:53.513Z,3.00
2023-05-24T15:59:55.347Z,3.20
